Terminal Aerodrome Forecast
Issued by NWS

Current Version | Previous Version | Text Only | Print | Product List | Glossary On
Versions: 1 2 3 4 5 6 7 8 9 10 11 12 13 14 15 16 17 18 19 20 21 22 23
000
FTUS46 KEKA 261504 CCA
TAFCEC
TAF COR
KCEC 261504Z 2615/2712 34004KT P6SM BKN012 OVC023
      TEMPO 2615/2617 SCT012 SCT025
     FM261700 33011KT P6SM SKC
     FM270300 34015G20KT P6SM SCT015=

USA.gov is the U.S. government's official web portal to all federal, state and local government web resources and services.